Time;durP1;ratioP1;P1;durP2;ratioP2;P2;SDS_P1;SDS_P2;PMS_P1;PMS_P2;Temp;Humidity;BMP_temperature;BMP_pressure;BME280_temperature;BME280_humidity;BME280_pressure;Samples;Min_cycle;Max_cycle;Signal;HPM_P1;HPM_P2
2023/01/24 00:01:23;;;;;;;69.63;25.20;;;2.30;99.90;;;;;;5030180;28;20279;-71
2023/01/24 00:03:50;;;;;;;75.03;26.83;;;2.20;99.90;;;;;;5030154;28;20214;-71
2023/01/24 00:06:17;;;;;;;68.80;25.37;;;2.30;99.90;;;;;;5030915;28;20201;-70
2023/01/24 00:08:44;;;;;;;77.37;25.73;;;2.30;99.90;;;;;;5030067;28;20605;-70
2023/01/24 00:11:12;;;;;;;72.50;26.40;;;2.30;99.90;;;;;;5033145;28;20198;-71
2023/01/24 00:13:39;;;;;;;71.47;25.57;;;2.20;99.90;;;;;;5034525;28;20213;-71
2023/01/24 00:16:06;;;;;;;82.13;26.70;;;2.20;99.90;;;;;;5033567;28;20191;-70
2023/01/24 00:18:33;;;;;;;75.60;26.57;;;2.20;99.90;;;;;;5033245;28;20207;-73
2023/01/24 00:21:09;;;;;;;71.13;25.93;;;2.20;99.90;;;;;;5033357;28;20198;-69
2023/01/24 00:23:44;;;;;;;78.23;27.27;;;2.30;99.90;;;;;;5034313;28;20190;-67
2023/01/24 00:26:12;;;;;;;75.73;25.13;;;2.30;99.90;;;;;;5033148;28;20216;-67
2023/01/24 00:28:39;;;;;;;76.20;25.80;;;2.20;99.90;;;;;;5033084;28;20201;-66
2023/01/24 00:31:06;;;;;;;71.37;25.10;;;2.30;99.90;;;;;;5034228;28;20191;-70
2023/01/24 00:33:34;;;;;;;73.03;26.30;;;2.30;99.90;;;;;;5032865;28;20283;-70
2023/01/24 00:36:01;;;;;;;77.27;26.50;;;2.30;99.90;;;;;;5049386;28;20675;-70
2023/01/24 00:38:30;;;;;;;67.27;25.67;;;2.30;99.90;;;;;;5033047;28;20188;-68
2023/01/24 00:40:57;;;;;;;74.67;25.53;;;2.30;99.90;;;;;;5032944;28;20271;-70
2023/01/24 00:43:26;;;;;;;75.20;27.07;;;2.30;99.90;;;;;;5034198;28;20202;-72
2023/01/24 00:45:53;;;;;;;65.57;24.40;;;2.30;99.90;;;;;;5032831;28;20198;-69
2023/01/24 00:48:21;;;;;;;72.73;25.50;;;2.30;99.90;;;;;;5032587;28;20238;-73
2023/01/24 00:50:47;;;;;;;72.40;24.83;;;2.30;99.90;;;;;;5032999;28;20224;-72
2023/01/24 00:53:14;;;;;;;68.57;25.03;;;2.40;99.90;;;;;;5032243;28;20219;-70
2023/01/24 00:55:46;;;;;;;73.73;25.23;;;2.40;99.90;;;;;;5033958;28;20226;-70
2023/01/24 00:58:13;;;;;;;73.93;24.57;;;2.40;99.90;;;;;;5032769;28;20283;-68
2023/01/24 01:00:40;;;;;;;75.00;26.37;;;2.40;99.90;;;;;;5032701;28;20211;-69
2023/01/24 01:03:11;;;;;;;78.10;27.57;;;2.40;99.90;;;;;;5032421;28;20204;-69
2023/01/24 01:05:38;;;;;;;79.07;26.80;;;2.40;99.90;;;;;;5032532;28;20196;-67
2023/01/24 01:08:05;;;;;;;66.90;25.70;;;2.40;99.90;;;;;;5032757;28;20645;-69
2023/01/24 01:10:32;;;;;;;65.13;24.27;;;2.50;99.90;;;;;;5032320;28;20190;-70
2023/01/24 01:12:59;;;;;;;74.90;25.77;;;2.50;99.90;;;;;;5032415;28;20210;-69
2023/01/24 01:15:26;;;;;;;78.63;25.33;;;2.50;99.90;;;;;;5015444;28;20226;-71
2023/01/24 01:17:52;;;;;;;79.33;26.13;;;2.50;99.90;;;;;;4992788;28;20192;-69
2023/01/24 01:20:19;;;;;;;70.67;24.77;;;2.50;99.90;;;;;;4992847;28;20210;-71
2023/01/24 01:22:46;;;;;;;70.83;25.87;;;2.50;99.90;;;;;;4993000;28;20534;-71
2023/01/24 01:25:13;;;;;;;70.63;24.43;;;2.50;99.90;;;;;;4992546;28;20201;-74
2023/01/24 01:27:40;;;;;;;63.67;25.13;;;2.50;99.90;;;;;;4993193;28;20197;-75
2023/01/24 01:30:08;;;;;;;73.93;26.37;;;2.60;99.90;;;;;;4992869;28;20204;-75
2023/01/24 01:32:35;;;;;;;70.73;25.07;;;2.50;99.90;;;;;;4994173;28;20219;-76
2023/01/24 01:35:02;;;;;;;67.37;24.87;;;2.50;99.90;;;;;;4992824;28;20242;-76
2023/01/24 01:37:29;;;;;;;71.07;25.97;;;2.40;99.90;;;;;;4976408;28;20201;-76
2023/01/24 01:39:55;;;;;;;69.23;25.70;;;2.50;99.90;;;;;;4994103;28;20276;-76
2023/01/24 01:42:22;;;;;;;67.03;23.93;;;2.50;99.90;;;;;;4993873;28;20530;-75
2023/01/24 01:44:53;;;;;;;67.43;24.67;;;2.60;99.90;;;;;;4992395;28;20207;-73
2023/01/24 01:47:33;;;;;;;68.67;24.73;;;2.50;99.90;;;;;;4992433;28;20239;-71
2023/01/24 01:50:13;;;;;;;64.90;24.63;;;2.40;99.90;;;;;;4992490;28;20207;-70
2023/01/24 01:52:42;;;;;;;60.07;23.67;;;2.50;99.90;;;;;;4992916;28;20211;-71
2023/01/24 01:55:15;;;;;;;65.27;24.73;;;2.50;99.90;;;;;;4975582;28;20263;-71
2023/01/24 01:57:43;;;;;;;75.13;24.17;;;2.60;99.90;;;;;;4992182;28;20186;-72
2023/01/24 02:00:12;;;;;;;71.50;25.70;;;2.50;99.90;;;;;;4992169;28;20504;-71
2023/01/24 02:02:45;;;;;;;67.57;24.23;;;2.50;99.90;;;;;;4991859;28;20204;-74
2023/01/24 02:05:15;;;;;;;68.40;24.43;;;2.50;99.90;;;;;;4992149;28;20214;-72
2023/01/24 02:07:47;;;;;;;68.37;25.07;;;2.50;99.90;;;;;;4991677;28;20219;-73
2023/01/24 02:10:17;;;;;;;77.20;25.17;;;2.50;99.90;;;;;;4991718;28;20204;-71
2023/01/24 02:12:47;;;;;;;71.27;25.10;;;2.60;99.90;;;;;;4993375;28;20194;-72
2023/01/24 02:18:08;;;;;;;67.77;23.97;;;2.60;99.90;;;;;;4991926;28;20596;-73
2023/01/24 02:20:40;;;;;;;64.67;24.57;;;2.60;99.90;;;;;;4993258;28;20193;-73
2023/01/24 02:23:30;;;;;;;67.53;23.80;;;2.60;99.90;;;;;;4992776;28;20189;-74
2023/01/24 02:26:06;;;;;;;67.63;24.10;;;2.60;99.90;;;;;;4991239;28;20184;-74
2023/01/24 02:28:33;;;;;;;60.27;24.27;;;2.50;99.90;;;;;;4991710;28;20192;-75
2023/01/24 02:31:02;;;;;;;68.93;24.10;;;2.50;99.90;;;;;;4991568;28;20189;-74
2023/01/24 02:33:30;;;;;;;64.33;23.73;;;2.40;99.90;;;;;;4992415;28;20231;-73
2023/01/24 02:36:17;;;;;;;68.23;24.67;;;2.40;99.90;;;;;;4975563;28;20314;-74
2023/01/24 02:38:50;;;;;;;64.20;23.80;;;2.40;99.90;;;;;;4994310;28;20267;-76
2023/01/24 02:41:25;;;;;;;58.80;22.90;;;2.40;99.90;;;;;;4994104;28;20217;-74
2023/01/24 02:44:02;;;;;;;74.00;25.37;;;2.50;99.90;;;;;;4989947;28;20204;-76
2023/01/24 02:46:30;;;;;;;68.30;23.90;;;2.40;99.90;;;;;;5001680;28;20201;-69
2023/01/24 02:48:57;;;;;;;64.97;24.43;;;2.40;99.90;;;;;;4974628;28;20215;-71
2023/01/24 02:54:11;;;;;;;64.90;24.23;;;2.40;99.90;;;;;;4973476;28;20322;-74
2023/01/24 02:59:26;;;;;;;68.57;24.10;;;2.50;99.90;;;;;;4974069;28;20299;-71
2023/01/24 03:01:57;;;;;;;62.27;24.17;;;2.50;99.90;;;;;;4974270;28;20256;-71
2023/01/24 03:04:24;;;;;;;61.67;22.90;;;2.60;99.90;;;;;;4990216;28;20284;-71
2023/01/24 03:06:53;;;;;;;68.53;24.53;;;2.60;99.90;;;;;;4973889;28;20689;-72
2023/01/24 03:09:33;;;;;;;63.20;23.47;;;2.60;99.90;;;;;;4974185;28;20204;-71
2023/01/24 03:37:00;;;;;;;58.80;22.03;;;2.70;99.90;;;;;;4990761;28;20199;-72
2023/01/24 03:42:13;;;;;;;59.90;22.47;;;2.70;99.90;;;;;;4992104;28;20666;-75
2023/01/24 03:44:44;;;;;;;59.60;22.87;;;2.60;99.90;;;;;;4990482;28;20201;-73
2023/01/24 03:47:19;;;;;;;57.10;22.83;;;2.70;99.90;;;;;;4994511;28;20632;-71
2023/01/24 03:52:31;;;;;;;56.40;22.43;;;2.70;99.90;;;;;;4994513;28;20200;-72
2023/01/24 03:54:59;;;;;;;55.10;22.10;;;2.70;99.90;;;;;;4993902;28;20236;-71
2023/01/24 03:57:28;;;;;;;54.43;22.33;;;2.70;99.90;;;;;;4994639;28;20251;-71
2023/01/24 03:59:55;;;;;;;56.83;22.17;;;2.80;99.90;;;;;;4994338;28;20292;-71
2023/01/24 04:02:22;;;;;;;52.17;21.70;;;2.70;99.90;;;;;;4994227;28;20219;-72
2023/01/24 04:07:35;;;;;;;58.90;21.87;;;2.80;99.90;;;;;;4994476;28;20249;-72
2023/01/24 04:10:02;;;;;;;50.63;20.70;;;2.90;99.90;;;;;;4995591;28;20209;-74
2023/01/24 04:12:29;;;;;;;54.30;21.07;;;2.90;99.90;;;;;;4994251;28;20204;-75
2023/01/24 04:14:56;;;;;;;52.40;21.00;;;2.90;99.90;;;;;;4995132;28;20209;-75
2023/01/24 04:17:23;;;;;;;48.47;20.23;;;3.00;99.90;;;;;;4994108;28;20573;-74
2023/01/24 04:19:50;;;;;;;48.10;20.07;;;2.80;99.90;;;;;;4994294;28;20595;-76
2023/01/24 04:22:17;;;;;;;51.17;21.03;;;2.80;99.90;;;;;;4994099;28;20200;-75
2023/01/24 04:24:45;;;;;;;51.27;20.17;;;2.90;99.90;;;;;;4993673;28;20633;-73
2023/01/24 04:27:12;;;;;;;46.27;19.43;;;2.70;99.90;;;;;;4994207;28;20658;-73
2023/01/24 04:29:39;;;;;;;52.40;19.87;;;2.80;99.90;;;;;;4994041;28;20193;-73
2023/01/24 04:32:06;;;;;;;46.53;19.57;;;2.80;99.90;;;;;;4995017;28;20596;-72
2023/01/24 04:34:33;;;;;;;47.60;19.97;;;2.80;99.90;;;;;;4993952;28;20300;-71
2023/01/24 04:37:00;;;;;;;42.20;19.43;;;2.90;99.90;;;;;;4993501;28;20203;-72
2023/01/24 04:39:26;;;;;;;47.00;18.40;;;2.70;99.90;;;;;;4977684;28;20207;-73
2023/01/24 04:41:53;;;;;;;46.00;19.43;;;2.80;99.90;;;;;;4993638;28;20244;-73
2023/01/24 04:44:20;;;;;;;46.70;20.37;;;2.70;99.90;;;;;;4993588;28;20206;-73
2023/01/24 04:46:47;;;;;;;43.97;18.73;;;2.70;99.90;;;;;;4994706;28;20185;-73
2023/01/24 04:49:14;;;;;;;45.03;18.63;;;2.70;99.90;;;;;;4993374;28;20196;-73
2023/01/24 04:51:44;;;;;;;44.80;18.93;;;2.70;99.90;;;;;;4995090;28;20204;-73
2023/01/24 04:54:11;;;;;;;47.27;19.03;;;2.70;99.90;;;;;;4992825;28;20358;-72
2023/01/24 04:56:38;;;;;;;50.93;19.50;;;2.70;99.90;;;;;;4992849;28;20247;-74
2023/01/24 04:59:04;;;;;;;46.17;18.67;;;2.70;99.90;;;;;;4992863;28;20658;-71
2023/01/24 05:01:31;;;;;;;42.73;19.10;;;2.80;99.90;;;;;;4993272;28;20199;-73
2023/01/24 05:03:59;;;;;;;43.43;18.23;;;2.80;99.90;;;;;;4993063;28;20205;-72
2023/01/24 05:06:26;;;;;;;40.37;18.40;;;2.80;99.90;;;;;;4994474;28;20184;-73
2023/01/24 05:08:54;;;;;;;38.37;17.77;;;2.80;99.90;;;;;;4993113;28;20212;-73
2023/01/24 05:11:22;;;;;;;42.93;19.00;;;2.80;99.90;;;;;;4994654;28;20533;-74
2023/01/24 05:13:49;;;;;;;45.17;18.70;;;2.80;99.90;;;;;;4993201;28;20635;-72
2023/01/24 05:16:17;;;;;;;46.10;18.80;;;2.80;99.90;;;;;;4993316;28;20225;-73
2023/01/24 05:18:44;;;;;;;46.43;18.57;;;2.70;99.90;;;;;;4994819;28;20206;-73
2023/01/24 05:21:13;;;;;;;45.37;19.57;;;2.80;99.90;;;;;;4992955;28;20201;-74
2023/01/24 05:23:41;;;;;;;42.50;18.57;;;2.80;99.90;;;;;;4992811;28;20631;-74
2023/01/24 05:26:09;;;;;;;44.90;18.63;;;2.80;99.90;;;;;;4992668;28;20203;-74
2023/01/24 05:28:36;;;;;;;38.73;16.90;;;2.70;99.90;;;;;;4993864;28;20196;-76
2023/01/24 05:31:08;;;;;;;43.67;18.53;;;2.70;99.90;;;;;;4992843;28;20260;-74
2023/01/24 05:33:36;;;;;;;43.97;18.97;;;2.80;99.90;;;;;;4992796;28;20647;-73
2023/01/24 05:36:06;;;;;;;43.63;17.80;;;2.90;99.90;;;;;;4992545;28;20394;-73
2023/01/24 05:38:33;;;;;;;39.03;16.97;;;2.90;99.90;;;;;;4992767;28;20201;-73
2023/01/24 05:41:09;;;;;;;41.20;17.93;;;2.90;99.90;;;;;;4992733;28;20200;-76
2023/01/24 05:43:36;;;;;;;41.07;17.93;;;2.90;99.90;;;;;;4994144;28;20212;-73
2023/01/24 05:46:10;;;;;;;44.07;18.53;;;3.00;99.90;;;;;;4992299;28;20206;-71
2023/01/24 05:48:38;;;;;;;42.00;18.43;;;3.00;99.90;;;;;;4994303;28;20630;-76
2023/01/24 05:51:07;;;;;;;39.87;17.87;;;2.90;99.90;;;;;;4991980;28;20208;-70
2023/01/24 05:53:36;;;;;;;43.67;18.67;;;2.90;99.90;;;;;;4992067;28;20228;-78
2023/01/24 05:56:12;;;;;;;37.60;17.63;;;2.90;99.90;;;;;;4992045;28;20225;-80
2023/01/24 05:58:40;;;;;;;42.07;18.23;;;2.90;99.90;;;;;;4993764;28;20615;-79
2023/01/24 06:01:13;;;;;;;41.33;18.60;;;2.90;99.90;;;;;;4992022;28;20208;-71
2023/01/24 06:03:41;;;;;;;41.53;18.03;;;3.00;99.90;;;;;;4992023;28;20204;-74
2023/01/24 06:06:10;;;;;;;39.53;17.73;;;2.90;99.90;;;;;;4992049;28;20221;-75
2023/01/24 06:08:37;;;;;;;41.87;18.17;;;3.00;99.90;;;;;;4991216;28;20194;-79
2023/01/24 06:11:14;;;;;;;40.53;17.00;;;3.00;99.90;;;;;;4991972;28;20202;-79
2023/01/24 06:13:42;;;;;;;40.97;17.03;;;2.90;99.90;;;;;;4992134;28;20211;-73
2023/01/24 06:16:12;;;;;;;43.47;18.37;;;3.00;99.90;;;;;;4991603;28;20579;-80
2023/01/24 06:18:39;;;;;;;39.43;16.60;;;3.00;99.90;;;;;;4991919;28;20636;-77
2023/01/24 06:21:08;;;;;;;41.13;17.70;;;3.00;99.90;;;;;;4991740;28;20196;-81
2023/01/24 06:23:35;;;;;;;39.27;17.47;;;3.00;99.90;;;;;;4991986;28;20213;-82
2023/01/24 06:26:02;;;;;;;40.97;16.80;;;3.00;99.90;;;;;;4975728;28;20212;-83
2023/01/24 06:28:29;;;;;;;37.90;16.97;;;3.00;99.90;;;;;;4991596;28;20195;-83
2023/01/24 06:31:21;;;;;;;42.47;17.50;;;3.00;99.90;;;;;;4993721;28;20284;-81
2023/01/24 06:34:06;;;;;;;38.27;16.93;;;2.90;99.90;;;;;;4991762;28;20248;-80
2023/01/24 06:36:44;;;;;;;35.63;16.57;;;3.00;99.90;;;;;;4991492;28;20225;-79
2023/01/24 06:39:15;;;;;;;39.00;17.23;;;3.00;99.90;;;;;;4991565;28;20195;-82
2023/01/24 06:41:42;;;;;;;37.47;17.67;;;3.00;99.90;;;;;;4991684;28;20205;-82
2023/01/24 06:44:11;;;;;;;38.13;16.97;;;3.00;99.90;;;;;;4992858;28;20188;-84
2023/01/24 06:46:38;;;;;;;37.27;16.47;;;3.00;99.90;;;;;;4991414;28;20655;-83
2023/01/24 06:49:05;;;;;;;41.63;17.60;;;3.00;99.90;;;;;;4991618;28;20200;-77
2023/01/24 06:51:32;;;;;;;42.60;17.47;;;3.00;99.90;;;;;;4991792;28;20209;-72
2023/01/24 06:54:00;;;;;;;42.63;17.50;;;3.00;99.90;;;;;;4990724;28;20244;-83
2023/01/24 06:56:29;;;;;;;38.90;16.93;;;3.00;99.90;;;;;;4991315;28;20307;-84
2023/01/24 06:58:56;;;;;;;40.43;17.00;;;3.00;99.90;;;;;;4991441;28;20603;-81
2023/01/24 07:01:23;;;;;;;40.90;16.97;;;3.10;99.90;;;;;;4992045;28;20700;-85
2023/01/24 07:03:50;;;;;;;38.73;16.97;;;3.10;99.90;;;;;;4991900;28;20636;-78
2023/01/24 07:06:17;;;;;;;39.27;18.17;;;3.10;99.90;;;;;;4991257;28;20670;-69
2023/01/24 07:08:44;;;;;;;37.87;17.07;;;3.00;99.90;;;;;;4991510;28;20296;-72
2023/01/24 07:11:11;;;;;;;40.30;18.07;;;3.00;99.90;;;;;;4991019;28;20200;-70
2023/01/24 07:13:38;;;;;;;38.63;16.83;;;3.00;99.90;;;;;;4992808;28;20192;-71
2023/01/24 07:16:05;;;;;;;44.47;18.27;;;3.10;99.90;;;;;;4990649;28;20267;-69
2023/01/24 07:18:33;;;;;;;43.60;17.97;;;3.10;99.90;;;;;;4991670;28;20192;-82
2023/01/24 07:21:03;;;;;;;41.10;18.47;;;3.20;99.90;;;;;;4995003;28;20576;-79
2023/01/24 07:23:32;;;;;;;44.90;18.00;;;3.10;99.90;;;;;;4994674;28;20210;-70
2023/01/24 07:25:59;;;;;;;44.97;18.20;;;3.10;99.90;;;;;;4994863;28;20206;-68
2023/01/24 07:28:26;;;;;;;42.37;17.80;;;3.10;99.90;;;;;;4994861;28;20296;-68
2023/01/24 07:30:54;;;;;;;40.80;17.43;;;3.30;99.90;;;;;;4994875;28;20212;-68
2023/01/24 07:33:21;;;;;;;39.30;17.53;;;3.20;99.90;;;;;;4994772;28;20198;-68
2023/01/24 07:35:48;;;;;;;40.07;16.87;;;3.30;99.90;;;;;;4995259;28;20222;-70
2023/01/24 07:38:14;;;;;;;39.87;17.10;;;3.30;99.90;;;;;;4994895;28;20333;-71
2023/01/24 07:40:42;;;;;;;38.13;16.93;;;3.30;99.90;;;;;;4996265;28;20201;-70
2023/01/24 07:43:09;;;;;;;36.50;16.67;;;3.40;99.90;;;;;;4994580;28;20305;-69
2023/01/24 07:45:37;;;;;;;36.30;17.00;;;3.40;99.90;;;;;;4995614;28;20199;-70
2023/01/24 07:48:08;;;;;;;37.80;17.23;;;3.40;99.90;;;;;;4994627;28;20209;-72
2023/01/24 07:50:38;;;;;;;38.53;17.07;;;3.40;99.90;;;;;;4994952;28;20203;-71
2023/01/24 07:53:05;;;;;;;40.37;17.67;;;3.40;99.90;;;;;;4994193;28;20201;-69
2023/01/24 07:55:32;;;;;;;40.80;17.23;;;3.50;99.90;;;;;;4995899;28;20202;-68
2023/01/24 07:58:01;;;;;;;36.80;17.60;;;3.50;99.90;;;;;;4984330;28;20299;-70
2023/01/24 08:00:29;;;;;;;39.83;18.03;;;3.40;99.90;;;;;;4996312;28;20201;-87
2023/01/24 08:02:56;;;;;;;43.40;18.73;;;3.50;99.90;;;;;;4996584;28;20288;-76
2023/01/24 08:05:23;;;;;;;41.43;18.37;;;3.60;99.90;;;;;;4995116;28;20189;-71
2023/01/24 08:07:50;;;;;;;39.57;17.93;;;3.60;99.90;;;;;;4994652;28;20206;-83
2023/01/24 08:10:17;;;;;;;36.83;17.03;;;3.60;99.90;;;;;;4994925;28;20204;-85
2023/01/24 08:12:44;;;;;;;36.57;16.83;;;3.70;99.90;;;;;;4995786;28;20648;-89
2023/01/24 08:15:10;;;;;;;38.47;17.10;;;3.70;99.90;;;;;;4995804;28;20197;-86
2023/01/24 08:17:39;;;;;;;37.10;16.40;;;3.70;99.90;;;;;;4995160;28;20208;-73
2023/01/24 08:20:07;;;;;;;38.80;17.10;;;3.70;99.90;;;;;;4995446;28;20201;-77
2023/01/24 08:22:34;;;;;;;37.67;16.90;;;3.80;99.90;;;;;;4994340;28;20189;-71
2023/01/24 08:25:11;;;;;;;39.03;17.27;;;3.80;99.90;;;;;;4993684;28;20207;-72
2023/01/24 08:27:42;;;;;;;35.70;16.67;;;3.90;99.90;;;;;;4993986;28;20197;-72
2023/01/24 08:30:11;;;;;;;34.60;15.97;;;3.90;99.90;;;;;;4994914;28;20273;-70
2023/01/24 08:32:38;;;;;;;40.97;16.80;;;3.90;99.90;;;;;;4993314;28;20216;-69
2023/01/24 08:35:05;;;;;;;37.23;16.73;;;3.90;99.90;;;;;;4993859;28;20206;-69
2023/01/24 08:37:32;;;;;;;38.83;16.93;;;3.90;99.90;;;;;;4993976;28;20229;-68
2023/01/24 08:39:59;;;;;;;34.47;16.37;;;3.90;99.90;;;;;;4994694;28;20204;-68
2023/01/24 08:42:26;;;;;;;38.97;17.80;;;3.90;99.90;;;;;;4995800;28;20222;-71
2023/01/24 08:44:52;;;;;;;38.80;16.90;;;3.90;99.90;;;;;;4993578;28;20650;-72
2023/01/24 08:47:19;;;;;;;38.20;17.67;;;3.90;99.90;;;;;;4994969;28;20609;-71
2023/01/24 08:49:46;;;;;;;37.43;16.13;;;4.00;99.90;;;;;;4995235;28;20233;-68
2023/01/24 08:52:13;;;;;;;36.90;16.97;;;4.00;99.90;;;;;;4995106;28;20209;-69
2023/01/24 08:54:40;;;;;;;34.30;16.90;;;4.10;99.90;;;;;;4993013;28;20592;-71
2023/01/24 08:57:10;;;;;;;40.23;17.17;;;4.10;99.90;;;;;;4993160;28;20216;-68
2023/01/24 08:59:37;;;;;;;36.40;16.87;;;4.10;99.90;;;;;;4993188;28;20198;-69
2023/01/24 09:02:04;;;;;;;36.80;17.23;;;4.10;99.90;;;;;;4993142;28;20201;-83
2023/01/24 09:04:31;;;;;;;36.30;16.77;;;4.20;99.90;;;;;;4993183;28;20193;-69
2023/01/24 09:06:58;;;;;;;37.33;18.07;;;4.30;99.90;;;;;;4993563;28;20212;-72
2023/01/24 09:09:25;;;;;;;37.60;17.07;;;4.30;99.90;;;;;;4993100;28;20198;-69
2023/01/24 09:11:53;;;;;;;36.73;17.53;;;4.40;99.90;;;;;;4993230;28;20252;-69
2023/01/24 09:14:20;;;;;;;35.53;16.10;;;4.40;99.90;;;;;;4994393;28;20189;-72
2023/01/24 09:16:47;;;;;;;37.47;17.00;;;4.40;99.90;;;;;;4992944;28;20225;-68
2023/01/24 09:19:14;;;;;;;37.90;16.00;;;4.50;99.90;;;;;;4993071;28;20209;-70
2023/01/24 09:21:40;;;;;;;40.23;17.27;;;4.50;99.90;;;;;;4994155;28;20284;-68
2023/01/24 09:24:07;;;;;;;36.30;17.00;;;4.50;99.90;;;;;;4992820;28;20197;-74
2023/01/24 09:26:34;;;;;;;35.97;16.83;;;4.40;99.90;;;;;;4992438;28;20222;-68
2023/01/24 09:29:01;;;;;;;39.33;17.60;;;4.50;99.90;;;;;;4994184;28;20213;-67
2023/01/24 09:31:28;;;;;;;35.60;17.17;;;4.50;99.90;;;;;;4992956;28;20289;-68
2023/01/24 09:33:55;;;;;;;35.93;16.87;;;4.60;99.90;;;;;;4994078;28;20209;-71
2023/01/24 09:36:26;;;;;;;40.70;18.07;;;4.50;99.90;;;;;;4994055;28;20217;-70
2023/01/24 09:38:53;;;;;;;38.77;18.33;;;4.50;99.90;;;;;;4994378;28;20197;-83
2023/01/24 09:41:53;;;;;;;40.87;18.73;;;4.60;99.90;;;;;;4992710;28;20229;-71
2023/01/24 09:45:02;;;;;;;43.53;18.23;;;4.60;99.90;;;;;;4993741;28;20254;-74
2023/01/24 09:47:40;;;;;;;38.13;18.27;;;4.50;99.90;;;;;;4991635;28;20261;-69
2023/01/24 09:50:16;;;;;;;41.37;19.47;;;4.60;99.90;;;;;;4991879;28;20651;-74
2023/01/24 09:52:47;;;;;;;41.40;18.80;;;4.70;99.90;;;;;;4992979;28;20200;-72
2023/01/24 09:55:15;;;;;;;41.17;18.73;;;4.50;99.90;;;;;;4992603;28;20240;-70
2023/01/24 09:58:01;;;;;;;37.13;18.03;;;4.60;99.90;;;;;;4992594;28;20220;-70
2023/01/24 10:00:36;;;;;;;39.83;18.67;;;4.70;99.90;;;;;;4992002;28;20296;-70
2023/01/24 10:03:11;;;;;;;35.67;17.07;;;4.70;99.90;;;;;;4993381;28;20200;-72
2023/01/24 10:05:42;;;;;;;36.80;17.07;;;4.80;99.90;;;;;;4992231;28;20304;-77
2023/01/24 10:08:22;;;;;;;40.63;18.10;;;4.80;99.90;;;;;;4995440;28;20276;-73
2023/01/24 10:11:05;;;;;;;39.80;18.40;;;4.80;99.90;;;;;;4994907;28;20205;-73
2023/01/24 10:14:12;;;;;;;38.87;17.70;;;4.80;99.90;;;;;;4992034;28;20201;-75
2023/01/24 10:17:13;;;;;;;41.97;18.67;;;4.80;99.90;;;;;;4991712;28;20217;-68
2023/01/24 10:20:15;;;;;;;43.10;19.37;;;4.70;99.90;;;;;;4993077;28;20193;-74
2023/01/24 10:23:11;;;;;;;45.27;20.10;;;4.70;99.90;;;;;;4991678;28;20661;-68
2023/01/24 10:25:52;;;;;;;48.30;21.43;;;4.60;99.90;;;;;;4991972;28;20205;-75
2023/01/24 10:28:27;;;;;;;43.97;20.17;;;4.50;99.90;;;;;;4993263;28;20201;-74
2023/01/24 10:31:12;;;;;;;49.00;22.70;;;4.60;99.90;;;;;;4991624;28;20225;-73
2023/01/24 10:33:48;;;;;;;49.70;23.20;;;4.50;99.90;;;;;;4992211;28;20206;-69
2023/01/24 10:36:44;;;;;;;55.40;24.23;;;4.50;99.90;;;;;;4993009;28;20193;-69
2023/01/24 10:39:11;;;;;;;53.03;23.53;;;4.60;99.90;;;;;;4991633;28;20532;-67
2023/01/24 10:41:39;;;;;;;52.57;23.40;;;4.60;99.90;;;;;;4991616;28;20218;-71
2023/01/24 10:44:15;;;;;;;48.53;22.50;;;4.60;99.90;;;;;;4992367;28;20293;-69
2023/01/24 10:47:13;;;;;;;52.27;22.17;;;4.50;99.90;;;;;;4974871;28;20224;-74
2023/01/24 10:49:51;;;;;;;48.80;21.17;;;4.50;99.90;;;;;;4991803;28;20257;-78
2023/01/24 10:52:21;;;;;;;48.73;21.47;;;4.50;99.90;;;;;;4992970;28;20207;-75
2023/01/24 10:54:53;;;;;;;48.47;20.10;;;4.60;99.90;;;;;;4990418;28;20264;-82
2023/01/24 10:57:37;;;;;;;45.50;20.67;;;4.50;99.90;;;;;;4992893;28;20218;-78
2023/01/24 11:00:30;;;;;;;46.53;21.07;;;4.60;99.90;;;;;;4992318;28;20197;-79
2023/01/24 11:03:18;;;;;;;43.90;20.20;;;4.60;99.90;;;;;;4991623;28;20193;-76
2023/01/24 11:05:50;;;;;;;43.87;20.50;;;4.50;99.90;;;;;;4992716;28;20200;-82
2023/01/24 11:08:24;;;;;;;46.37;20.53;;;4.40;99.90;;;;;;4975580;28;20200;-77
2023/01/24 11:10:55;;;;;;;43.80;21.47;;;4.40;99.90;;;;;;4992408;28;20218;-85
2023/01/24 11:13:28;;;;;;;46.40;21.27;;;4.50;99.90;;;;;;4992822;28;20622;-80
2023/01/24 11:16:01;;;;;;;47.47;22.10;;;4.40;99.90;;;;;;4992834;28;20654;-68
2023/01/24 11:18:30;;;;;;;41.80;20.57;;;4.30;99.90;;;;;;4990772;28;20228;-68
2023/01/24 11:21:09;;;;;;;45.40;21.43;;;4.30;99.90;;;;;;4991149;28;20205;-68
2023/01/24 11:23:36;;;;;;;48.07;21.47;;;4.30;99.90;;;;;;4992399;28;20635;-73
2023/01/24 11:26:05;;;;;;;43.30;20.50;;;4.40;99.90;;;;;;4992431;28;20189;-68
2023/01/24 11:28:34;;;;;;;41.40;19.93;;;4.40;99.90;;;;;;4991224;28;20206;-68
2023/01/24 11:31:14;;;;;;;43.50;19.83;;;4.40;99.90;;;;;;4991732;28;20202;-77
2023/01/24 11:34:19;;;;;;;43.97;20.90;;;4.50;99.90;;;;;;4991563;28;20203;-70
2023/01/24 11:37:09;;;;;;;45.23;20.43;;;4.40;99.90;;;;;;4992839;28;20217;-73
2023/01/24 11:39:41;;;;;;;46.17;21.37;;;4.40;99.90;;;;;;4992472;28;20197;-73
2023/01/24 14:11:13;;;;;;;50.90;19.93;;;3.90;99.90;;;;;;5125869;27;20553;-71
2023/01/24 14:13:43;;;;;;;47.40;20.23;;;4.00;99.90;;;;;;5125202;27;20189;-71
2023/01/24 14:16:33;;;;;;;48.43;20.97;;;4.00;99.90;;;;;;5141793;27;20208;-69
2023/01/24 14:19:13;;;;;;;51.83;20.43;;;4.10;99.90;;;;;;5125167;27;20297;-74
2023/01/24 14:22:00;;;;;;;48.03;20.07;;;4.20;99.90;;;;;;5156442;27;20192;-80
2023/01/24 14:24:48;;;;;;;54.20;21.37;;;4.20;99.90;;;;;;5126650;28;20202;-83
2023/01/24 14:27:35;;;;;;;50.53;20.57;;;4.40;99.90;;;;;;5142056;27;20189;-77
2023/01/24 14:30:16;;;;;;;48.67;20.23;;;4.50;99.90;;;;;;5091357;28;20213;-78
2023/01/24 14:32:43;;;;;;;47.80;19.47;;;4.50;99.90;;;;;;5108214;28;20242;-68
2023/01/24 14:35:19;;;;;;;43.67;19.20;;;4.50;99.90;;;;;;5107888;28;20208;-69
2023/01/24 14:37:47;;;;;;;43.37;19.03;;;4.40;99.90;;;;;;5125406;28;20185;-73
2023/01/24 14:40:22;;;;;;;46.27;19.47;;;4.50;99.90;;;;;;5141422;27;20293;-78
2023/01/24 14:42:51;;;;;;;41.30;19.17;;;4.40;99.90;;;;;;5126588;27;20206;-76
2023/01/24 14:45:23;;;;;;;44.67;19.40;;;4.50;99.90;;;;;;5128259;28;20642;-73
2023/01/24 14:47:51;;;;;;;50.87;19.27;;;4.50;99.90;;;;;;5127085;27;20191;-72
2023/01/24 14:50:32;;;;;;;41.77;18.67;;;4.50;99.90;;;;;;5128118;27;20214;-70
2023/01/24 14:53:19;;;;;;;46.17;20.33;;;4.50;99.90;;;;;;5124866;27;20189;-71
2023/01/24 14:55:46;;;;;;;49.27;20.33;;;4.50;99.90;;;;;;5127965;28;20201;-81
2023/01/24 14:58:28;;;;;;;45.83;19.67;;;4.50;99.90;;;;;;5127053;28;20193;-78
2023/01/24 15:00:58;;;;;;;45.40;20.23;;;4.50;99.90;;;;;;5127620;27;20189;-76
2023/01/24 15:03:31;;;;;;;50.83;22.07;;;4.50;99.90;;;;;;5127873;27;20207;-75
2023/01/24 15:06:02;;;;;;;47.63;20.93;;;4.50;99.90;;;;;;5131936;28;20205;-79
2023/01/24 15:08:30;;;;;;;49.70;21.13;;;4.40;99.90;;;;;;5134641;27;20198;-75
2023/01/24 15:11:07;;;;;;;47.77;21.83;;;4.40;99.90;;;;;;5146565;27;20217;-73
2023/01/24 15:13:44;;;;;;;49.00;20.80;;;4.30;99.90;;;;;;5129324;28;20295;-74
2023/01/24 15:16:21;;;;;;;47.40;20.47;;;4.30;99.90;;;;;;5145373;27;20279;-74
2023/01/24 15:18:53;;;;;;;47.23;20.63;;;4.30;99.90;;;;;;5127917;28;20204;-74
2023/01/24 15:21:39;;;;;;;49.60;20.87;;;4.30;99.90;;;;;;5126464;27;20290;-73
2023/01/24 15:24:22;;;;;;;43.77;19.77;;;4.30;99.90;;;;;;5112483;28;20282;-74
2023/01/24 15:26:49;;;;;;;48.67;20.37;;;4.30;99.90;;;;;;5113951;28;20219;-78
2023/01/24 15:29:43;;;;;;;44.33;20.23;;;4.40;99.90;;;;;;5114846;28;20311;-78
2023/01/24 15:32:27;;;;;;;44.23;19.43;;;4.40;99.90;;;;;;5114832;28;20639;-72
2023/01/24 15:35:21;;;;;;;42.90;20.17;;;4.40;99.90;;;;;;5105822;28;20206;-71
2023/01/24 15:38:18;;;;;;;46.60;20.27;;;4.20;99.90;;;;;;5116033;28;20285;-71
2023/01/24 15:40:50;;;;;;;43.17;19.03;;;4.20;99.90;;;;;;5117953;28;20589;-71
2023/01/24 15:49:23;;;;;;;45.20;20.53;;;4.20;99.90;;;;;;5109990;28;20207;-83
2023/01/24 15:52:10;;;;;;;46.67;19.77;;;4.10;99.90;;;;;;5097393;28;20223;-78
2023/01/24 15:54:43;;;;;;;49.77;21.13;;;4.10;99.90;;;;;;5130112;27;20309;-81
2023/01/24 15:57:19;;;;;;;47.93;19.83;;;4.20;99.90;;;;;;5117695;27;20191;-75
2023/01/24 15:59:50;;;;;;;49.27;20.93;;;4.20;99.90;;;;;;5104953;27;20196;-87
2023/01/24 16:02:17;;;;;;;44.80;20.17;;;4.10;99.90;;;;;;5112288;28;20608;-83
2023/01/24 16:04:45;;;;;;;46.53;20.53;;;4.10;99.90;;;;;;5110309;28;20292;-75
2023/01/24 16:07:12;;;;;;;50.83;20.97;;;4.10;99.90;;;;;;5112574;28;20222;-75
2023/01/24 16:09:39;;;;;;;51.07;21.53;;;4.20;99.90;;;;;;5111410;28;20239;-73
2023/01/24 16:12:08;;;;;;;48.73;21.30;;;4.20;99.90;;;;;;5112132;28;20224;-83
2023/01/24 16:14:36;;;;;;;47.00;20.07;;;4.10;99.90;;;;;;5139676;27;20201;-83